createdAt,value
2023-03-12T00:01:19.564Z,100493.78
2023-03-12T00:03:46.348Z,100495.28
2023-03-12T00:06:13.120Z,100499.00
2023-03-12T00:08:40.033Z,100503.81
2023-03-12T00:11:06.768Z,100504.63
2023-03-12T00:13:33.590Z,100502.72
2023-03-12T00:16:00.395Z,100503.88
2023-03-12T00:18:27.150Z,100511.88
2023-03-12T00:20:54.146Z,100514.84
2023-03-12T00:23:20.919Z,100515.13
2023-03-12T00:25:47.719Z,100516.91
2023-03-12T00:28:14.479Z,100516.09
2023-03-12T00:30:42.397Z,100518.22
2023-03-12T00:33:09.272Z,100518.69
2023-03-12T00:35:36.041Z,100524.41
2023-03-12T00:38:02.833Z,100517.63
2023-03-12T00:40:29.574Z,100525.28
2023-03-12T00:42:56.424Z,100526.38
2023-03-12T00:45:23.221Z,100523.41
2023-03-12T00:47:50.087Z,100530.03
2023-03-12T00:50:16.828Z,100531.56
2023-03-12T00:52:43.820Z,100537.09
2023-03-12T00:55:10.556Z,100536.22
2023-03-12T00:57:37.383Z,100534.25
2023-03-12T01:00:05.700Z,100521.31
2023-03-12T01:02:32.477Z,100525.66
2023-03-12T01:04:59.219Z,100509.91
2023-03-12T01:07:26.084Z,100518.69
2023-03-12T01:09:52.837Z,100522.63
2023-03-12T01:12:19.680Z,100520.28
2023-03-12T01:14:46.480Z,100519.81
2023-03-12T01:17:13.263Z,100514.69
2023-03-12T01:19:40.078Z,100515.16
2023-03-12T01:22:06.831Z,100513.16
2023-03-12T01:24:33.580Z,100523.75
2023-03-12T01:27:00.313Z,100518.41
2023-03-12T01:29:27.093Z,100512.91
2023-03-12T01:31:54.166Z,100517.03
2023-03-12T01:34:20.919Z,100510.88
2023-03-12T01:36:47.808Z,100519.00
2023-03-12T01:39:14.626Z,100520.19
2023-03-12T01:41:41.549Z,100512.13
2023-03-12T01:44:08.392Z,100508.13
2023-03-12T01:46:35.161Z,100512.88
2023-03-12T01:49:01.954Z,100513.00
2023-03-12T01:51:28.723Z,100509.31
2023-03-12T01:53:55.462Z,100500.91
2023-03-12T01:56:22.213Z,100496.63
2023-03-12T01:58:49.024Z,100496.50
2023-03-12T02:01:15.789Z,100499.28
2023-03-12T02:03:42.536Z,100499.47
2023-03-12T02:06:09.309Z,100494.16
2023-03-12T02:08:36.044Z,100497.47
2023-03-12T02:11:02.789Z,100500.84
2023-03-12T02:13:29.556Z,100504.22
2023-03-12T02:15:56.316Z,100502.63
2023-03-12T02:18:23.068Z,100493.53
2023-03-12T02:20:49.883Z,100501.03
2023-03-12T02:23:16.606Z,100504.97
2023-03-12T02:25:43.411Z,100504.91
2023-03-12T02:28:10.253Z,100506.66
2023-03-12T02:30:37.127Z,100511.06
2023-03-12T02:33:03.867Z,100516.38
2023-03-12T02:35:30.752Z,100520.19
2023-03-12T02:37:57.550Z,100513.41
2023-03-12T02:40:24.301Z,100522.31
2023-03-12T02:42:51.095Z,100521.13
2023-03-12T02:45:17.823Z,100530.31
2023-03-12T02:47:44.607Z,100534.69
2023-03-12T02:50:11.465Z,100535.63
2023-03-12T02:52:38.282Z,100531.19
2023-03-12T02:55:05.019Z,100524.22
2023-03-12T02:57:31.779Z,100538.06
2023-03-12T02:59:58.512Z,100543.06
2023-03-12T03:02:25.290Z,100543.22
2023-03-12T03:04:52.158Z,100545.84
2023-03-12T03:07:18.885Z,100544.53
2023-03-12T03:09:45.635Z,100541.44
2023-03-12T03:12:12.391Z,100543.03
2023-03-12T03:14:39.198Z,100545.47
2023-03-12T03:17:05.946Z,100551.00
2023-03-12T03:19:32.748Z,100553.69
2023-03-12T03:21:59.474Z,100552.31
2023-03-12T03:24:26.249Z,100552.47
2023-03-12T03:26:53.029Z,100563.06
2023-03-12T03:29:19.829Z,100562.59
2023-03-12T03:31:46.562Z,100559.63
2023-03-12T03:34:13.367Z,100559.22
2023-03-12T03:36:40.094Z,100556.88
2023-03-12T03:39:06.848Z,100567.88
2023-03-12T03:41:33.651Z,100560.81
2023-03-12T03:44:00.404Z,100567.28
2023-03-12T03:46:27.261Z,100567.31
2023-03-12T03:48:54.199Z,100562.81
2023-03-12T03:51:20.957Z,100563.25
2023-03-12T03:53:47.723Z,100567.38
2023-03-12T03:56:14.615Z,100570.97
2023-03-12T03:58:41.394Z,100574.69
2023-03-12T04:01:08.126Z,100570.38
2023-03-12T04:03:34.984Z,100572.72
2023-03-12T04:06:01.805Z,100567.59
2023-03-12T04:08:28.851Z,100577.97
2023-03-12T04:10:55.821Z,100576.88
2023-03-12T04:13:22.900Z,100583.91
2023-03-12T04:15:49.716Z,100587.44
2023-03-12T04:18:16.538Z,100581.00
2023-03-12T04:20:43.319Z,100590.19
2023-03-12T04:23:10.295Z,100582.06
2023-03-12T04:25:37.049Z,100589.25
2023-03-12T04:28:03.838Z,100593.75
2023-03-12T04:30:30.591Z,100589.72
2023-03-12T04:32:57.354Z,100596.88
2023-03-12T04:35:24.982Z,100596.34
2023-03-12T04:37:51.741Z,100595.38
2023-03-12T04:40:19.875Z,100593.06
2023-03-12T04:42:47.124Z,100588.47
2023-03-12T04:45:13.873Z,100582.28
2023-03-12T04:47:40.646Z,100582.69
2023-03-12T04:50:07.389Z,100578.84
2023-03-12T04:52:34.115Z,100584.22
2023-03-12T04:55:00.928Z,100572.44
2023-03-12T04:57:27.673Z,100583.63
2023-03-12T04:59:54.437Z,100579.94
2023-03-12T05:02:21.203Z,100586.41
2023-03-12T05:04:47.952Z,100589.19
2023-03-12T05:07:14.714Z,100583.31
2023-03-12T05:09:41.490Z,100583.16
2023-03-12T05:12:08.221Z,100588.34
2023-03-12T05:14:34.985Z,100585.75
2023-03-12T05:17:01.885Z,100581.84
2023-03-12T05:19:28.638Z,100575.19
2023-03-12T05:21:55.369Z,100582.22
2023-03-12T05:24:22.643Z,100583.81
2023-03-12T05:26:49.385Z,100582.22
2023-03-12T05:29:16.149Z,100584.03
2023-03-12T05:31:43.014Z,100586.97
2023-03-12T05:34:09.820Z,100587.41
2023-03-12T05:36:36.678Z,100587.88
2023-03-12T05:39:03.447Z,100589.31
2023-03-12T05:41:30.291Z,100581.91
2023-03-12T05:43:57.113Z,100585.28
2023-03-12T05:46:24.030Z,100583.59
2023-03-12T05:48:50.768Z,100581.41
2023-03-12T05:51:17.501Z,100572.44
2023-03-12T05:53:44.250Z,100571.44
2023-03-12T05:56:12.332Z,100576.09
2023-03-12T05:58:39.098Z,100581.94
2023-03-12T06:01:05.872Z,100579.66
2023-03-12T06:03:32.635Z,100577.75
2023-03-12T06:05:59.374Z,100583.31
2023-03-12T06:08:26.147Z,100580.88
2023-03-12T06:10:54.681Z,100576.91
2023-03-12T06:13:22.242Z,100580.72
2023-03-12T06:15:49.154Z,100579.97
2023-03-12T06:18:15.886Z,100577.44
2023-03-12T06:20:42.698Z,100579.84
2023-03-12T06:23:09.531Z,100586.97
2023-03-12T06:25:36.279Z,100583.75
2023-03-12T06:28:03.036Z,100580.22
2023-03-12T06:30:29.828Z,100579.16
2023-03-12T06:32:56.642Z,100582.09
2023-03-12T06:35:23.458Z,100586.78
2023-03-12T06:37:50.244Z,100581.94
2023-03-12T06:40:17.678Z,100588.75
2023-03-12T06:42:44.428Z,100583.78
2023-03-12T06:45:11.193Z,100584.66
2023-03-12T06:47:37.980Z,100580.56
2023-03-12T06:50:04.747Z,100585.13
2023-03-12T06:52:31.494Z,100585.59
2023-03-12T06:54:58.263Z,100577.13
2023-03-12T06:57:24.999Z,100573.66
2023-03-12T06:59:52.209Z,100576.56
2023-03-12T07:02:18.965Z,100571.16
2023-03-12T07:04:45.787Z,100577.97
2023-03-12T07:07:12.611Z,100577.53
2023-03-12T07:09:39.397Z,100575.97
2023-03-12T07:12:06.160Z,100567.50
2023-03-12T07:14:32.928Z,100564.81
2023-03-12T07:17:01.743Z,100572.00
2023-03-12T07:19:30.112Z,100572.91
2023-03-12T07:21:56.900Z,100571.22
2023-03-12T07:24:23.661Z,100565.81
2023-03-12T07:26:50.462Z,100561.13
2023-03-12T07:29:17.206Z,100557.72
2023-03-12T07:31:44.024Z,100558.25
2023-03-12T07:34:11.008Z,100565.53
2023-03-12T07:36:38.187Z,100560.06
2023-03-12T07:39:05.101Z,100558.16
2023-03-12T07:41:31.987Z,100561.06
2023-03-12T07:43:58.884Z,100553.53
2023-03-12T07:46:25.725Z,100566.47
2023-03-12T07:48:53.078Z,100561.50
2023-03-12T07:51:19.911Z,100570.94
2023-03-12T07:53:46.634Z,100565.22
2023-03-12T07:56:13.459Z,100563.06
2023-03-12T07:58:40.349Z,100572.00
2023-03-12T08:01:07.429Z,100566.75
2023-03-12T08:03:34.426Z,100562.22
2023-03-12T08:06:01.366Z,100562.53
2023-03-12T08:08:28.263Z,100561.84
2023-03-12T08:10:55.060Z,100554.19
2023-03-12T08:13:23.578Z,100547.84
2023-03-12T08:15:50.794Z,100559.00
2023-03-12T08:18:17.547Z,100560.84
2023-03-12T08:20:44.351Z,100559.91
2023-03-12T08:23:11.217Z,100557.25
2023-03-12T08:25:38.063Z,100561.06
2023-03-12T08:28:04.819Z,100566.94
2023-03-12T08:30:31.692Z,100570.91
2023-03-12T08:32:58.700Z,100567.31
2023-03-12T08:35:25.524Z,100558.38
2023-03-12T08:37:52.280Z,100560.56
2023-03-12T08:40:19.105Z,100557.19
2023-03-12T08:42:45.881Z,100541.34
2023-03-12T08:45:12.647Z,100550.09
2023-03-12T08:47:41.514Z,100548.81
2023-03-12T08:50:08.397Z,100557.28
2023-03-12T08:52:35.282Z,100558.28
2023-03-12T08:55:02.028Z,100556.00
2023-03-12T08:57:28.880Z,100555.84
2023-03-12T08:59:56.041Z,100551.53
2023-03-12T09:02:22.755Z,100545.56
2023-03-12T09:04:49.580Z,100549.41
2023-03-12T09:07:18.357Z,100545.34
2023-03-12T09:09:45.132Z,100548.00
2023-03-12T09:12:11.881Z,100543.13
2023-03-12T09:17:25.467Z,100544.06
2023-03-12T09:19:52.225Z,100543.25
2023-03-12T09:22:18.968Z,100538.22
2023-03-12T09:24:45.728Z,100527.38
2023-03-12T09:27:12.542Z,100521.53
2023-03-12T09:29:46.606Z,100510.03
2023-03-12T09:32:23.925Z,100513.66
2023-03-12T09:34:50.668Z,100520.13
2023-03-12T09:37:17.428Z,100502.31
2023-03-12T09:39:44.197Z,100512.41
2023-03-12T09:42:10.943Z,100510.69
2023-03-12T09:44:37.683Z,100507.56
2023-03-12T09:47:04.590Z,100517.56
2023-03-12T09:49:31.341Z,100510.50
2023-03-12T09:51:58.089Z,100518.66
2023-03-12T09:54:25.034Z,100514.25
2023-03-12T09:56:51.789Z,100525.06
2023-03-12T09:59:18.574Z,100523.53
2023-03-12T10:01:45.374Z,100526.63
2023-03-12T10:04:12.173Z,100527.56
2023-03-12T10:06:39.143Z,100533.47
2023-03-12T10:09:06.020Z,100519.13
2023-03-12T10:11:32.890Z,100515.72
2023-03-12T10:13:59.624Z,100516.13
2023-03-12T10:16:26.389Z,100507.66
2023-03-12T10:18:53.294Z,100511.78
2023-03-12T10:21:20.184Z,100510.25
2023-03-12T10:23:46.952Z,100504.47
2023-03-12T10:26:13.760Z,100496.41
2023-03-12T10:28:40.599Z,100491.72
2023-03-12T10:31:07.445Z,100484.69
2023-03-12T10:33:34.270Z,100478.44
2023-03-12T10:36:01.029Z,100477.34
2023-03-12T10:38:27.819Z,100474.53
2023-03-12T10:40:54.553Z,100467.50
2023-03-12T10:43:21.312Z,100464.94
2023-03-12T10:45:49.922Z,100453.72
2023-03-12T10:48:16.691Z,100460.56
2023-03-12T10:50:43.430Z,100445.16
2023-03-12T10:53:10.172Z,100446.19
2023-03-12T10:55:36.909Z,100448.94
2023-03-12T10:58:03.694Z,100445.09
2023-03-12T11:00:31.035Z,100440.78
2023-03-12T11:02:58.647Z,100431.31
2023-03-12T11:05:25.505Z,100430.22
2023-03-12T11:07:52.273Z,100426.16
2023-03-12T11:10:19.088Z,100425.72
2023-03-12T11:12:45.858Z,100422.97
2023-03-12T11:15:12.609Z,100402.66
2023-03-12T11:17:39.344Z,100403.09
2023-03-12T11:20:06.516Z,100393.13
2023-03-12T11:22:33.317Z,100394.00
2023-03-12T11:25:00.145Z,100383.94
2023-03-12T11:27:27.035Z,100380.56
2023-03-12T11:29:53.841Z,100371.19
2023-03-12T11:32:20.699Z,100379.06
2023-03-12T11:34:49.265Z,100380.94
2023-03-12T11:37:16.082Z,100373.53
2023-03-12T11:39:42.820Z,100380.31
2023-03-12T11:42:09.566Z,100370.16
2023-03-12T11:44:36.470Z,100364.41
2023-03-12T11:47:03.326Z,100367.34
2023-03-12T11:49:30.167Z,100361.53
2023-03-12T11:51:57.152Z,100370.13
2023-03-12T11:54:23.887Z,100358.56
2023-03-12T11:56:50.638Z,100354.13
2023-03-12T11:59:17.399Z,100350.56
2023-03-12T12:01:44.200Z,100349.28
2023-03-12T12:04:10.990Z,100359.81
2023-03-12T12:06:37.761Z,100352.50
2023-03-12T12:09:05.171Z,100349.03
2023-03-12T12:11:31.930Z,100348.59
2023-03-12T12:13:58.700Z,100348.34
2023-03-12T12:16:25.571Z,100331.47
2023-03-12T12:18:52.374Z,100331.16
2023-03-12T12:21:19.243Z,100328.53
2023-03-12T12:23:46.602Z,100327.78
2023-03-12T12:26:13.493Z,100313.59
2023-03-12T12:28:40.361Z,100307.31
2023-03-12T12:31:07.089Z,100312.91
2023-03-12T12:33:33.842Z,100298.22
2023-03-12T12:36:00.739Z,100294.34
2023-03-12T12:38:30.173Z,100292.78
2023-03-12T12:40:56.913Z,100282.53
2023-03-12T12:43:23.700Z,100278.94
2023-03-12T12:45:50.571Z,100282.91
2023-03-12T12:48:17.534Z,100284.56
2023-03-12T12:50:44.377Z,100276.19
2023-03-12T12:53:11.136Z,100276.56
2023-03-12T12:55:37.880Z,100278.50
2023-03-12T12:58:04.641Z,100280.53
2023-03-12T13:00:31.388Z,100275.41
2023-03-12T13:02:58.237Z,100269.16
2023-03-12T13:05:25.004Z,100268.56
2023-03-12T13:07:51.970Z,100274.38
2023-03-12T13:12:50.396Z,100248.34
2023-03-12T13:15:17.144Z,100238.13
2023-03-12T13:17:43.909Z,100238.31
2023-03-12T13:20:10.916Z,100241.88
2023-03-12T13:22:37.667Z,100240.00
2023-03-12T13:25:04.985Z,100235.31
2023-03-12T13:27:31.911Z,100237.47
2023-03-12T13:29:59.178Z,100236.41
2023-03-12T13:32:25.983Z,100243.81
2023-03-12T13:34:52.881Z,100232.22
2023-03-12T13:37:19.675Z,100235.81
2023-03-12T13:39:46.409Z,100219.19
2023-03-12T13:42:13.179Z,100217.53
2023-03-12T13:44:40.087Z,100220.63
2023-03-12T13:47:06.896Z,100212.00
2023-03-12T13:49:33.656Z,100204.88
2023-03-12T13:52:00.660Z,100211.03
2023-03-12T13:54:27.434Z,100206.97
2023-03-12T13:56:54.199Z,100200.81
2023-03-12T13:59:20.936Z,100196.41
2023-03-12T14:01:47.977Z,100178.97
2023-03-12T14:04:14.827Z,100164.94
2023-03-12T14:06:41.596Z,100167.81
2023-03-12T14:09:08.329Z,100166.84
2023-03-12T14:11:35.127Z,100169.97
2023-03-12T14:14:01.852Z,100175.09
2023-03-12T14:16:28.621Z,100167.56
2023-03-12T14:18:55.466Z,100157.03
2023-03-12T14:21:22.221Z,100156.56
2023-03-12T14:23:48.955Z,100158.84
2023-03-12T14:26:15.720Z,100148.03
2023-03-12T14:28:42.472Z,100148.88
2023-03-12T14:31:09.259Z,100150.88
2023-03-12T14:33:36.119Z,100147.59
2023-03-12T14:36:02.918Z,100140.56
2023-03-12T14:38:29.709Z,100131.22
2023-03-12T14:40:56.490Z,100141.03
2023-03-12T14:43:23.278Z,100148.19
2023-03-12T14:45:50.003Z,100136.91
2023-03-12T14:48:16.931Z,100134.72
2023-03-12T14:50:43.668Z,100128.22
2023-03-12T14:53:10.404Z,100121.94
2023-03-12T14:55:37.154Z,100134.38
2023-03-12T14:58:03.878Z,100122.97
2023-03-12T15:00:30.668Z,100129.94
2023-03-12T15:02:57.439Z,100141.06
2023-03-12T15:05:24.183Z,100137.00
2023-03-12T15:07:51.246Z,100126.13
2023-03-12T15:10:18.066Z,100134.84
2023-03-12T15:12:44.788Z,100139.97
2023-03-12T15:15:11.542Z,100131.34
2023-03-12T15:17:38.341Z,100123.78
2023-03-12T15:20:08.999Z,100129.28
2023-03-12T15:22:35.736Z,100118.63
2023-03-12T15:25:02.934Z,100115.41
2023-03-12T15:27:29.668Z,100119.72
2023-03-12T15:29:56.456Z,100109.81
2023-03-12T15:32:24.890Z,100101.88
2023-03-12T15:34:51.924Z,100094.81
2023-03-12T15:37:18.776Z,100098.91
2023-03-12T15:39:45.662Z,100088.66
2023-03-12T15:42:12.461Z,100084.69
2023-03-12T15:44:39.219Z,100089.56
2023-03-12T15:47:06.045Z,100084.19
2023-03-12T15:49:33.017Z,100091.63
2023-03-12T15:51:59.813Z,100086.06
2023-03-12T15:54:27.249Z,100091.41
2023-03-12T15:56:54.049Z,100087.38
2023-03-12T15:59:21.093Z,100088.66
2023-03-12T16:01:47.854Z,100083.03
2023-03-12T16:04:14.662Z,100076.78
2023-03-12T16:06:43.841Z,100081.84
2023-03-12T16:09:10.591Z,100065.22
2023-03-12T16:11:37.324Z,100061.66
2023-03-12T16:14:04.130Z,100060.31
2023-03-12T16:16:31.171Z,100058.25
2023-03-12T16:18:58.028Z,100067.13
2023-03-12T16:21:24.843Z,100064.53
2023-03-12T16:23:51.643Z,100052.63
2023-03-12T16:26:18.455Z,100062.56
2023-03-12T16:28:46.024Z,100069.84
2023-03-12T16:31:12.903Z,100075.44
2023-03-12T16:33:39.794Z,100077.53
2023-03-12T16:36:06.555Z,100079.84
2023-03-12T16:38:33.347Z,100077.59
2023-03-12T16:41:00.288Z,100070.81
2023-03-12T16:43:29.032Z,100066.28
2023-03-12T16:45:57.225Z,100058.63
2023-03-12T16:48:24.689Z,100061.91
2023-03-12T16:50:51.509Z,100060.47
2023-03-12T16:53:18.280Z,100069.88
2023-03-12T16:55:45.083Z,100074.78
2023-03-12T16:58:11.853Z,100057.38
2023-03-12T17:00:38.623Z,100073.13
2023-03-12T17:03:05.376Z,100064.72
2023-03-12T17:05:32.099Z,100055.16
2023-03-12T17:07:59.417Z,100065.63
2023-03-12T17:10:26.195Z,100063.75
2023-03-12T17:12:52.997Z,100065.97
2023-03-12T17:15:19.913Z,100054.13
2023-03-12T17:17:46.734Z,100051.34
2023-03-12T17:20:13.486Z,100061.75
2023-03-12T17:22:40.393Z,100051.34
2023-03-12T17:25:07.130Z,100057.09
2023-03-12T17:27:34.016Z,100050.78
2023-03-12T17:30:00.792Z,100062.78
2023-03-12T17:32:27.656Z,100065.53
2023-03-12T17:34:54.423Z,100056.31
2023-03-12T17:37:21.251Z,100064.06
2023-03-12T17:39:47.997Z,100067.38
2023-03-12T17:42:14.767Z,100074.53
2023-03-12T17:44:41.522Z,100079.06
2023-03-12T17:47:08.325Z,100086.72
2023-03-12T17:49:35.279Z,100083.38
2023-03-12T17:52:02.066Z,100073.84
2023-03-12T17:54:28.828Z,100073.50
2023-03-12T17:56:55.601Z,100071.34
2023-03-12T17:59:22.382Z,100074.69
2023-03-12T18:01:49.114Z,100080.09
2023-03-12T18:04:16.087Z,100072.66
2023-03-12T18:06:42.872Z,100069.00
2023-03-12T18:09:09.688Z,100074.78
2023-03-12T18:11:36.421Z,100082.53
2023-03-12T18:14:03.185Z,100081.31
2023-03-12T18:16:29.961Z,100082.63
2023-03-12T18:18:56.825Z,100079.63
2023-03-12T18:21:23.619Z,100085.84
2023-03-12T18:23:50.723Z,100088.41
2023-03-12T18:26:17.461Z,100074.78
2023-03-12T18:28:44.265Z,100082.91
2023-03-12T18:31:11.050Z,100075.03
2023-03-12T18:33:38.726Z,100076.38
2023-03-12T18:36:05.545Z,100076.91
2023-03-12T18:38:32.768Z,100052.31
2023-03-12T18:40:59.513Z,100071.22
2023-03-12T18:43:26.272Z,100060.75
2023-03-12T18:45:53.068Z,100059.94
2023-03-12T18:48:19.811Z,100056.78
2023-03-12T18:50:46.582Z,100062.63
2023-03-12T18:53:13.343Z,100061.47
2023-03-12T18:55:40.096Z,100064.13
2023-03-12T18:58:06.846Z,100069.78
2023-03-12T19:00:33.654Z,100071.06
2023-03-12T19:03:00.489Z,100058.19
2023-03-12T19:05:27.271Z,100061.28
2023-03-12T19:07:54.053Z,100065.19
2023-03-12T19:10:20.806Z,100066.81
2023-03-12T19:12:53.577Z,100072.41
2023-03-12T19:15:20.914Z,100069.03
2023-03-12T19:17:47.676Z,100067.63
2023-03-12T19:20:14.583Z,100075.38
2023-03-12T19:22:41.309Z,100068.69
2023-03-12T19:25:08.071Z,100070.84
2023-03-12T19:27:34.889Z,100079.41
2023-03-12T19:30:01.653Z,100079.41
2023-03-12T19:32:40.625Z,100080.69
2023-03-12T19:35:09.661Z,100073.91
2023-03-12T19:37:36.449Z,100086.41
2023-03-12T19:40:05.691Z,100076.47
2023-03-12T19:42:32.472Z,100077.13
2023-03-12T19:44:59.377Z,100087.88
2023-03-12T19:47:26.663Z,100084.31
2023-03-12T19:49:53.420Z,100082.41
2023-03-12T19:52:20.214Z,100090.41
2023-03-12T19:54:54.708Z,100094.00
2023-03-12T19:57:29.874Z,100094.19
2023-03-12T19:59:56.603Z,100084.63
2023-03-12T20:02:23.513Z,100073.72
2023-03-12T20:04:50.337Z,100085.69
2023-03-12T20:07:18.303Z,100086.53
2023-03-12T20:09:45.078Z,100093.03
2023-03-12T20:12:11.879Z,100086.25
2023-03-12T20:14:40.768Z,100088.59
2023-03-12T20:17:08.831Z,100091.44
2023-03-12T20:19:35.618Z,100084.13
2023-03-12T20:22:02.372Z,100088.41
2023-03-12T20:24:29.115Z,100093.59
2023-03-12T20:26:56.122Z,100089.81
2023-03-12T20:29:22.862Z,100096.09
2023-03-12T20:31:49.733Z,100088.50
2023-03-12T20:34:16.544Z,100085.75
2023-03-12T20:36:43.287Z,100079.41
2023-03-12T20:39:10.030Z,100080.81
2023-03-12T20:41:36.836Z,100073.03
2023-03-12T20:44:03.578Z,100066.56
2023-03-12T20:46:30.307Z,100059.28
2023-03-12T20:48:57.196Z,100062.88
2023-03-12T20:51:24.759Z,100064.53
2023-03-12T20:53:51.548Z,100065.13
2023-03-12T20:56:18.354Z,100063.88
2023-03-12T20:58:45.087Z,100062.34
2023-03-12T21:01:11.920Z,100054.09
2023-03-12T21:03:38.763Z,100051.81
2023-03-12T21:06:05.510Z,100055.69
2023-03-12T21:08:32.800Z,100052.16
2023-03-12T21:10:59.698Z,100064.28
2023-03-12T21:13:26.681Z,100061.38
2023-03-12T21:15:53.433Z,100059.97
2023-03-12T21:18:20.428Z,100067.03
2023-03-12T21:20:47.327Z,100067.25
2023-03-12T21:23:14.283Z,100066.28
2023-03-12T21:25:41.079Z,100062.41
2023-03-12T21:28:07.941Z,100066.09
2023-03-12T21:30:34.734Z,100074.91
2023-03-12T21:33:01.631Z,100064.38
2023-03-12T21:35:28.521Z,100064.53
2023-03-12T21:37:59.014Z,100068.78
2023-03-12T21:40:25.863Z,100064.72
2023-03-12T21:42:52.597Z,100067.69
2023-03-12T21:45:19.373Z,100061.25
2023-03-12T21:47:46.124Z,100077.47
2023-03-12T21:50:12.903Z,100065.03
2023-03-12T21:52:42.952Z,100062.34
2023-03-12T21:55:10.247Z,100065.34
2023-03-12T21:57:37.009Z,100068.13
2023-03-12T22:00:04.324Z,100067.47
2023-03-12T22:02:31.601Z,100067.59
2023-03-12T22:04:58.348Z,100063.31
2023-03-12T22:07:25.093Z,100060.56
2023-03-12T22:09:51.865Z,100061.59
2023-03-12T22:12:18.631Z,100053.34
2023-03-12T22:14:45.621Z,100053.81
2023-03-12T22:17:12.371Z,100048.75
2023-03-12T22:19:40.965Z,100051.63
2023-03-12T22:22:08.692Z,100051.72
2023-03-12T22:24:35.492Z,100036.44
2023-03-12T22:27:03.291Z,100027.88
2023-03-12T22:29:30.058Z,100028.97
2023-03-12T22:31:56.858Z,100028.88
2023-03-12T22:34:23.604Z,100026.03
2023-03-12T22:36:50.367Z,100013.50
2023-03-12T22:39:17.360Z,100016.63
2023-03-12T22:41:44.134Z,100019.00
2023-03-12T22:44:10.882Z,100020.88
2023-03-12T22:46:37.702Z,100014.91
2023-03-12T22:49:04.913Z,100017.44
2023-03-12T22:51:31.673Z,100011.75
2023-03-12T22:53:58.442Z,100011.38
2023-03-12T22:56:25.188Z,100002.50
2023-03-12T22:58:51.938Z,100010.34
2023-03-12T23:01:18.727Z,100011.41
2023-03-12T23:03:45.506Z,100011.16
2023-03-12T23:06:12.295Z,100010.88
2023-03-12T23:08:39.233Z,100023.63
2023-03-12T23:11:06.007Z,100016.69
2023-03-12T23:13:32.798Z,100012.88
2023-03-12T23:15:59.583Z,100012.03
2023-03-12T23:18:26.340Z,100012.38
2023-03-12T23:20:53.089Z,100007.91
2023-03-12T23:23:19.831Z,100006.34
2023-03-12T23:25:46.563Z,100003.50
2023-03-12T23:28:13.293Z,100000.75
2023-03-12T23:30:40.085Z,99996.50
2023-03-12T23:33:06.813Z,99989.28
2023-03-12T23:35:33.895Z,99993.69
2023-03-12T23:38:01.198Z,99999.66
2023-03-12T23:40:27.945Z,99984.34
2023-03-12T23:42:54.721Z,99997.00
2023-03-12T23:45:21.478Z,99994.47
2023-03-12T23:47:48.220Z,99985.44
2023-03-12T23:50:15.000Z,99985.00
2023-03-12T23:52:41.769Z,99993.16
2023-03-12T23:55:08.532Z,99988.22
2023-03-12T23:57:35.275Z,99976.53
